Time;durP1;ratioP1;P1;durP2;ratioP2;P2;SDS_P1;SDS_P2;PMS_P1;PMS_P2;Temp;Humidity;BMP_temperature;BMP_pressure;BME280_temperature;BME280_humidity;BME280_pressure;Samples;Min_cycle;Max_cycle;Signal;HPM_P1;HPM_P2
2023/06/14 00:02:04;;;;;;;7.20;3.00;;;;;;;18.72;68.69;98939.14;81898;1299;3011217;-67
2023/06/14 00:04:32;;;;;;;4.20;2.40;;;;;;;18.72;68.79;98939.54;80679;1299;3050196;-68
2023/06/14 00:06:59;;;;;;;9.10;2.70;;;;;;;18.67;68.92;98941.59;81966;1298;3012571;-68
2023/06/14 00:09:25;;;;;;;8.20;2.60;;;;;;;18.64;69.21;98936.99;81932;1298;3011172;-69
2023/06/14 00:11:54;;;;;;;9.80;2.20;;;;;;;18.63;69.07;98938.63;80663;1297;3025649;-69
2023/06/14 00:14:20;;;;;;;8.10;2.50;;;;;;;18.54;69.43;98941.31;81909;1299;3018018;-65
2023/06/14 00:16:47;;;;;;;4.10;2.20;;;;;;;18.51;69.61;98941.45;81860;1298;3012435;-68
2023/06/14 00:19:15;;;;;;;5.10;2.40;;;;;;;18.50;69.62;98946.23;80660;1298;3026464;-70
2023/06/14 00:21:43;;;;;;;7.00;2.10;;;;;;;18.46;69.64;98940.56;81923;1298;3012906;-67
2023/06/14 00:24:09;;;;;;;4.50;2.00;;;;;;;18.47;69.82;98945.22;81889;1301;3011314;-68
2023/06/14 00:26:37;;;;;;;5.40;2.30;;;;;;;18.42;69.68;98949.29;80632;1298;3025938;-68
2023/06/14 00:29:05;;;;;;;5.00;2.20;;;;;;;18.44;69.49;98950.70;81929;1301;3012379;-65
2023/06/14 00:31:33;;;;;;;5.20;2.10;;;;;;;18.44;69.27;98951.34;81860;1299;3011527;-67
2023/06/14 00:34:01;;;;;;;5.60;2.20;;;;;;;18.39;69.93;98950.83;80652;1298;3049397;-66
2023/06/14 00:36:28;;;;;;;6.30;2.00;;;;;;;18.35;69.84;98947.01;81941;1298;3012347;-66
2023/06/14 00:38:54;;;;;;;4.80;2.00;;;;;;;18.32;69.67;98945.35;81939;1298;3011711;-68
2023/06/14 00:41:23;;;;;;;3.50;2.00;;;;;;;18.30;70.08;98948.23;80675;1298;3052041;-65
2023/06/14 00:43:50;;;;;;;8.30;2.20;;;;;;;18.21;70.47;98945.02;81914;1299;3018683;-68
2023/06/14 00:46:19;;;;;;;6.20;2.90;;;;;;;18.22;70.33;98944.89;81935;1299;3011211;-70
2023/06/14 00:48:48;;;;;;;6.30;1.80;;;;;;;18.17;70.34;98942.98;80574;1298;3049433;-66
2023/06/14 00:51:15;;;;;;;11.00;2.10;;;;;;;18.12;70.65;98946.98;81731;1299;3011227;-67
2023/06/14 00:53:46;;;;;;;5.50;2.40;;;;;;;18.11;70.23;98943.73;81943;1297;3011188;-66
2023/06/14 00:56:14;;;;;;;3.40;1.40;;;;;;;18.06;70.64;98942.27;80679;1298;3052804;-66
2023/06/14 00:58:42;;;;;;;3.00;1.80;;;;;;;18.61;69.54;98945.56;81775;1304;3013299;-67
2023/06/14 01:01:09;;;;;;;5.50;1.40;;;;;;;19.18;67.71;98937.44;81924;1298;3011469;-69
2023/06/14 01:03:39;;;;;;;5.00;1.80;;;;;;;19.21;66.96;98940.50;80570;1296;3048850;-66
2023/06/14 01:06:15;;;;;;;4.70;2.30;;;;;;;19.07;67.19;98936.83;82061;1295;3013002;-65
2023/06/14 01:09:01;;;;;;;5.30;2.00;;;;;;;18.87;67.78;98940.80;80609;1295;3049110;-68
2023/06/14 01:11:35;;;;;;;4.50;2.10;;;;;;;18.67;68.11;98937.02;80831;1295;3053806;-66
2023/06/14 01:14:03;;;;;;;4.80;2.20;;;;;;;18.51;68.70;98945.41;81941;1301;3011212;-66
2023/06/14 01:16:35;;;;;;;6.10;2.30;;;;;;;18.38;69.57;98946.98;80773;1295;3068713;-67
2023/06/14 01:19:03;;;;;;;8.20;2.10;;;;;;;18.23;69.92;98947.55;82102;1297;3011261;-68
2023/06/14 01:21:36;;;;;;;3.60;2.10;;;;;;;18.14;70.23;98948.95;80761;1294;3055855;-66
2023/06/14 01:24:03;;;;;;;5.10;2.00;;;;;;;18.09;70.74;98949.55;82032;1294;3011285;-68
2023/06/14 01:26:32;;;;;;;3.50;2.20;;;;;;;18.02;70.35;98946.42;80856;1295;3052464;-65
2023/06/14 01:29:00;;;;;;;15.50;3.40;;;;;;;17.95;70.86;98949.44;82027;1297;3012758;-68
2023/06/14 01:31:27;;;;;;;5.90;2.60;;;;;;;17.88;71.35;98948.80;81973;1298;3011288;-67
2023/06/14 01:33:55;;;;;;;7.40;2.30;;;;;;;17.87;71.09;98947.89;80883;1294;3068800;-67
2023/06/14 01:36:23;;;;;;;4.60;2.30;;;;;;;17.79;71.78;98945.94;81993;1296;3011278;-68
2023/06/14 01:38:50;;;;;;;4.30;2.20;;;;;;;17.73;71.64;98948.11;81981;1295;3011140;-69
2023/06/14 01:41:18;;;;;;;5.00;2.30;;;;;;;17.73;72.01;98949.80;80691;1296;3053154;-69
2023/06/14 01:43:45;;;;;;;4.80;1.30;;;;;;;17.73;71.73;98950.69;81956;1301;3012697;-68
2023/06/14 01:46:13;;;;;;;2.40;1.40;;;;;;;18.23;70.72;98952.44;81992;1297;3011202;-66
2023/06/14 01:48:41;;;;;;;3.60;1.70;;;;;;;18.86;69.10;98946.73;80720;1293;3067807;-66
2023/06/14 01:51:08;;;;;;;8.60;2.50;;;;;;;18.94;67.52;98950.92;82171;1295;3011244;-67
2023/06/14 01:53:36;;;;;;;4.90;2.50;;;;;;;18.77;68.07;98944.73;82147;1294;3011232;-66
2023/06/14 01:56:04;;;;;;;8.50;2.50;;;;;;;18.62;68.53;98944.25;80845;1295;3052594;-68
2023/06/14 01:58:32;;;;;;;3.70;2.30;;;;;;;18.45;68.96;98946.55;82063;1294;3012704;-70
2023/06/14 02:01:00;;;;;;;5.30;3.10;;;;;;;18.29;69.53;98944.54;81978;1298;3011535;-67
2023/06/14 02:03:30;;;;;;;3.60;2.20;;;;;;;18.19;69.67;98941.68;80675;1296;3068908;-66
2023/06/14 02:05:57;;;;;;;4.00;2.30;;;;;;;18.07;70.14;98938.98;82101;1294;3012687;-67
2023/06/14 02:08:24;;;;;;;4.60;2.90;;;;;;;17.90;70.74;98939.23;82132;1294;3011391;-68
2023/06/14 02:10:52;;;;;;;6.90;2.70;;;;;;;17.81;71.39;98944.41;80859;1294;3026480;-67
2023/06/14 02:13:18;;;;;;;5.70;2.60;;;;;;;17.81;71.30;98942.30;81988;1297;3013277;-66
2023/06/14 02:15:45;;;;;;;5.60;2.70;;;;;;;17.73;71.58;98941.92;82089;1295;3011368;-71
2023/06/14 02:18:13;;;;;;;6.70;2.90;;;;;;;17.71;72.03;98939.49;80751;1295;3025854;-68
2023/06/14 02:20:40;;;;;;;7.80;2.20;;;;;;;17.67;72.10;98943.96;82176;1293;3013588;-66
2023/06/14 02:23:07;;;;;;;6.40;2.50;;;;;;;17.65;71.95;98947.86;81963;1295;3011220;-67
2023/06/14 02:25:35;;;;;;;3.10;1.50;;;;;;;17.64;72.16;98948.31;80841;1294;3052789;-69
2023/06/14 02:28:02;;;;;;;7.60;1.90;;;;;;;18.19;70.80;98948.21;82153;1295;3012745;-68
2023/06/14 02:30:29;;;;;;;3.60;2.10;;;;;;;18.79;68.74;98952.15;82123;1295;3011420;-66
2023/06/14 02:32:58;;;;;;;3.70;2.20;;;;;;;18.96;67.82;98949.13;80822;1294;3068951;-67
2023/06/14 02:35:26;;;;;;;3.60;2.10;;;;;;;18.85;67.66;98952.09;82094;1296;3013199;-66
2023/06/14 02:37:53;;;;;;;5.80;2.60;;;;;;;18.74;67.70;98945.86;82119;1294;3011448;-68
2023/06/14 02:40:24;;;;;;;4.00;2.30;;;;;;;18.52;68.30;98952.34;80752;1295;3052987;-67
2023/06/14 02:42:51;;;;;;;4.10;2.50;;;;;;;18.34;68.75;98956.33;82091;1295;3011275;-67
2023/06/14 02:45:18;;;;;;;8.00;2.50;;;;;;;18.19;69.44;98953.77;82106;1295;3011045;-67
2023/06/14 02:47:46;;;;;;;5.40;2.30;;;;;;;18.09;69.67;98956.80;80734;1294;3026294;-66
2023/06/14 02:50:13;;;;;;;4.20;2.30;;;;;;;18.08;69.67;98961.23;82189;1294;3018374;-66
2023/06/14 02:52:41;;;;;;;4.60;2.60;;;;;;;18.02;69.78;98961.09;81995;1294;3011063;-66
2023/06/14 02:55:10;;;;;;;3.90;2.70;;;;;;;17.95;70.18;98964.14;80740;1296;3051870;-67
2023/06/14 02:57:37;;;;;;;4.60;2.50;;;;;;;17.92;70.33;98958.69;82125;1298;3012863;-67
2023/06/14 03:00:09;;;;;;;7.30;3.20;;;;;;;17.82;70.80;98967.09;81973;1300;3011264;-67
2023/06/14 03:02:37;;;;;;;5.50;2.70;;;;;;;17.76;70.91;98965.38;80761;1294;3068752;-67
2023/06/14 03:05:06;;;;;;;6.30;3.10;;;;;;;17.72;70.91;98970.73;82141;1294;3012667;-66
2023/06/14 03:07:34;;;;;;;5.70;2.50;;;;;;;17.70;71.24;98968.98;82139;1294;3011329;-66
2023/06/14 03:10:03;;;;;;;6.10;2.80;;;;;;;17.70;71.22;98964.42;80744;1295;3053423;-65
2023/06/14 03:12:31;;;;;;;8.40;2.90;;;;;;;17.73;71.06;98966.27;82044;1295;3012841;-67
2023/06/14 03:15:01;;;;;;;9.50;3.10;;;;;;;17.73;71.20;98964.30;82060;1295;3011343;-69
2023/06/14 03:17:33;;;;;;;4.70;2.90;;;;;;;17.71;71.32;98961.27;80814;1294;3068237;-66
2023/06/14 03:20:00;;;;;;;8.80;1.80;;;;;;;17.71;71.50;98961.98;82021;1294;3013138;-65
2023/06/14 03:22:28;;;;;;;7.00;1.80;;;;;;;18.27;69.74;98964.12;82042;1294;3011337;-67
2023/06/14 03:24:56;;;;;;;4.20;2.00;;;;;;;18.82;67.89;98968.27;80732;1295;3053506;-67
2023/06/14 03:27:23;;;;;;;7.70;2.50;;;;;;;18.99;67.12;98968.18;82008;1297;3018140;-66
2023/06/14 03:29:50;;;;;;;7.10;2.60;;;;;;;18.98;66.75;98968.60;82057;1293;3011373;-68
2023/06/14 03:32:18;;;;;;;7.30;2.60;;;;;;;18.95;67.01;98967.52;80788;1295;3025954;-66
2023/06/14 03:34:46;;;;;;;7.90;2.80;;;;;;;18.78;66.95;98966.61;82137;1294;3012505;-67
2023/06/14 03:37:18;;;;;;;4.30;2.40;;;;;;;18.69;67.15;98965.76;80747;1294;3048779;-69
2023/06/14 03:39:47;;;;;;;4.50;2.60;;;;;;;18.59;67.42;98966.41;82007;1296;3018028;-66
2023/06/14 03:42:18;;;;;;;6.50;3.00;;;;;;;18.47;67.75;98965.27;80754;1296;3051044;-65
2023/06/14 03:44:45;;;;;;;5.50;3.10;;;;;;;18.35;68.08;98959.91;82025;1294;3012781;-65
2023/06/14 03:47:11;;;;;;;8.70;3.50;;;;;;;18.16;68.93;98960.20;82083;1294;3011321;-65
2023/06/14 03:49:39;;;;;;;14.10;4.00;;;;;;;18.07;69.36;98957.61;80814;1294;3026384;-67
2023/06/14 03:52:06;;;;;;;7.00;3.00;;;;;;;18.06;69.54;98953.91;81984;1294;3012676;-66
2023/06/14 03:54:34;;;;;;;6.40;3.00;;;;;;;18.11;69.05;98951.18;82056;1294;3011410;-67
2023/06/14 03:57:03;;;;;;;8.10;3.30;;;;;;;18.08;69.04;98948.57;80739;1298;3052593;-69
2023/06/14 03:59:29;;;;;;;10.70;3.60;;;;;;;18.06;69.40;98954.90;81999;1295;3018035;-67
2023/06/14 04:01:56;;;;;;;6.20;3.10;;;;;;;18.06;69.74;98952.91;82006;1294;3011276;-68
2023/06/14 04:04:28;;;;;;;11.50;3.80;;;;;;;18.02;70.02;98948.69;80771;1294;3026249;-67
2023/06/14 04:07:00;;;;;;;9.20;3.50;;;;;;;17.97;70.44;98944.02;81460;1294;3011435;-65
2023/06/14 04:09:27;;;;;;;12.90;4.20;;;;;;;17.93;70.64;98948.27;82024;1295;3013210;-67
2023/06/14 04:11:53;;;;;;;8.90;4.20;;;;;;;17.91;70.64;98947.26;81973;1294;3011429;-65
2023/06/14 04:14:22;;;;;;;12.10;4.80;;;;;;;17.98;70.43;98949.79;80850;1295;3051889;-67
2023/06/14 04:16:49;;;;;;;8.70;4.30;;;;;;;18.03;70.16;98951.26;82007;1299;3012231;-65
2023/06/14 04:19:17;;;;;;;9.40;4.60;;;;;;;18.03;70.08;98952.31;82005;1295;3011099;-66
2023/06/14 04:21:45;;;;;;;13.50;5.10;;;;;;;18.00;70.68;98958.11;80729;1294;3055819;-66
2023/06/14 04:24:13;;;;;;;9.70;4.40;;;;;;;18.07;70.61;98955.84;82007;1294;3013015;-67
2023/06/14 04:26:47;;;;;;;11.00;5.40;;;;;;;18.66;69.48;98955.58;81469;1295;3011386;-66
2023/06/14 04:29:16;;;;;;;11.30;5.40;;;;;;;19.35;67.04;98959.65;81972;1294;3011343;-65
2023/06/14 04:31:45;;;;;;;9.90;5.90;;;;;;;19.47;66.50;98960.63;80747;1297;3052631;-67
2023/06/14 04:34:16;;;;;;;12.50;6.40;;;;;;;19.56;65.69;98965.27;82007;1299;3013278;-67
2023/06/14 04:36:49;;;;;;;12.00;6.90;;;;;;;19.44;65.60;98964.32;80743;1295;3052095;-65
2023/06/14 04:39:17;;;;;;;11.10;5.80;;;;;;;19.16;65.95;98967.80;82004;1298;3011344;-66
2023/06/14 04:41:46;;;;;;;11.70;5.50;;;;;;;18.91;66.73;98964.84;80718;1294;3049517;-66
2023/06/14 04:44:13;;;;;;;13.70;4.90;;;;;;;18.60;68.00;98962.95;82146;1294;3012418;-66
2023/06/14 04:46:46;;;;;;;14.20;4.90;;;;;;;18.56;68.36;98967.03;80742;1298;3051769;-67
2023/06/14 04:49:16;;;;;;;14.70;5.60;;;;;;;18.37;68.91;98965.20;82054;1294;3011386;-67
2023/06/14 04:51:45;;;;;;;13.40;5.50;;;;;;;18.49;69.02;98971.29;80752;1293;3027909;-65
2023/06/14 04:54:15;;;;;;;9.80;6.20;;;;;;;18.57;68.47;98964.84;82055;1294;3013042;-65
2023/06/14 04:56:44;;;;;;;13.70;6.00;;;;;;;18.63;68.07;98967.52;80828;1294;3048684;-68
2023/06/14 04:59:14;;;;;;;13.20;6.10;;;;;;;18.72;67.63;98967.48;82022;1295;3011420;-67
2023/06/14 05:01:48;;;;;;;14.90;6.20;;;;;;;18.87;66.89;98966.23;80671;1296;3049312;-64
2023/06/14 05:04:15;;;;;;;14.20;6.70;;;;;;;18.90;66.69;98958.14;82069;1294;3010978;-69
2023/06/14 05:06:48;;;;;;;19.70;7.50;;;;;;;18.82;67.12;98958.16;80832;1298;3052724;-68
2023/06/14 05:09:16;;;;;;;22.00;8.80;;;;;;;18.98;66.68;98957.46;82048;1294;3011252;-67
2023/06/14 05:11:47;;;;;;;18.60;8.50;;;;;;;19.06;66.35;98961.05;80877;1295;3050865;-69
2023/06/14 05:14:14;;;;;;;15.30;6.60;;;;;;;19.14;65.87;98964.89;82014;1294;3012628;-68
2023/06/14 05:16:42;;;;;;;12.00;6.00;;;;;;;19.17;66.04;98970.24;82030;1294;3011311;-67
2023/06/14 05:19:10;;;;;;;15.90;6.30;;;;;;;19.21;66.04;98964.55;80882;1293;3049828;-67
2023/06/14 05:21:37;;;;;;;10.40;5.80;;;;;;;19.32;65.70;98964.57;82148;1293;3017864;-69
2023/06/14 05:24:03;;;;;;;15.40;5.80;;;;;;;19.33;65.72;98963.58;82115;1294;3011490;-66
2023/06/14 05:26:32;;;;;;;13.20;6.00;;;;;;;19.37;65.73;98966.75;80874;1294;3026426;-66
2023/06/14 05:29:00;;;;;;;13.50;4.80;;;;;;;19.38;65.76;98968.44;82127;1295;3012576;-68
2023/06/14 05:31:27;;;;;;;12.00;3.50;;;;;;;19.37;65.87;98968.28;82115;1294;3011420;-69
2023/06/14 05:33:55;;;;;;;8.90;4.20;;;;;;;19.49;65.56;98963.48;80746;1295;3048862;-68
2023/06/14 05:36:22;;;;;;;9.40;4.00;;;;;;;19.54;65.36;98960.81;82071;1294;3013400;-65
2023/06/14 05:38:50;;;;;;;11.90;4.40;;;;;;;19.52;65.57;98958.73;81973;1296;3011254;-66
2023/06/14 05:41:20;;;;;;;6.40;4.10;;;;;;;19.58;65.43;98957.36;80761;1294;3052248;-65
2023/06/14 05:43:47;;;;;;;7.90;4.40;;;;;;;19.68;65.19;98955.43;82023;1294;3011396;-68
2023/06/14 05:46:14;;;;;;;10.60;5.10;;;;;;;19.77;64.74;98960.09;82062;1293;3011317;-65
2023/06/14 05:48:42;;;;;;;7.50;4.60;;;;;;;19.81;64.42;98958.83;80744;1294;3049280;-64
2023/06/14 05:51:09;;;;;;;8.90;4.80;;;;;;;19.85;64.44;98959.52;82052;1297;3013012;-65
2023/06/14 05:53:36;;;;;;;11.50;5.20;;;;;;;19.89;64.47;98957.73;82022;1295;3011350;-66
2023/06/14 05:56:04;;;;;;;17.70;7.20;;;;;;;19.75;64.77;98962.23;80739;1294;3025549;-66
2023/06/14 05:58:31;;;;;;;16.50;8.00;;;;;;;19.50;65.34;98966.35;82040;1294;3012565;-66
2023/06/14 06:00:58;;;;;;;15.30;7.20;;;;;;;19.35;66.36;98963.05;82109;1294;3011283;-66
2023/06/14 06:03:29;;;;;;;10.50;5.60;;;;;;;19.44;66.04;98965.41;80871;1294;3027170;-65
2023/06/14 06:05:56;;;;;;;9.50;5.10;;;;;;;19.49;65.88;98970.29;82107;1295;3011331;-68
2023/06/14 06:08:24;;;;;;;9.10;4.30;;;;;;;19.35;66.19;98963.02;80848;1295;3027152;-68
2023/06/14 06:10:51;;;;;;;7.60;4.40;;;;;;;19.58;65.40;98965.52;82178;1293;3018515;-69
2023/06/14 06:13:18;;;;;;;8.10;4.40;;;;;;;19.73;64.72;98964.85;82132;1293;3011283;-66
2023/06/14 06:15:46;;;;;;;6.20;3.30;;;;;;;19.83;64.41;98966.83;80859;1294;3026486;-69
2023/06/14 06:18:13;;;;;;;6.30;3.50;;;;;;;19.95;64.13;98965.57;82109;1294;3018321;-67
2023/06/14 06:20:40;;;;;;;8.80;3.60;;;;;;;20.03;63.92;98967.20;81970;1295;3011385;-68
2023/06/14 06:23:09;;;;;;;7.40;4.50;;;;;;;20.17;63.60;98968.45;80737;1296;3026707;-67
2023/06/14 06:25:36;;;;;;;7.00;3.60;;;;;;;20.23;63.53;98971.45;82045;1294;3012905;-69
2023/06/14 06:28:03;;;;;;;7.60;3.60;;;;;;;20.38;63.37;98970.81;81999;1294;3011209;-68
2023/06/14 06:30:31;;;;;;;8.70;4.40;;;;;;;20.60;62.98;98968.15;80722;1294;3048582;-69
2023/06/14 06:32:58;;;;;;;8.60;3.60;;;;;;;20.71;62.59;98967.57;82016;1294;3012642;-72
2023/06/14 06:35:24;;;;;;;8.50;3.80;;;;;;;20.66;62.84;98964.98;81995;1294;3011062;-65
2023/06/14 06:37:52;;;;;;;7.70;3.50;;;;;;;20.75;62.41;98967.55;80771;1296;3026739;-68
2023/06/14 06:40:19;;;;;;;5.60;3.10;;;;;;;20.82;62.41;98971.55;82005;1294;3012647;-67
2023/06/14 06:42:47;;;;;;;10.80;4.00;;;;;;;20.89;61.67;98972.73;82018;1294;3011304;-68
2023/06/14 06:45:15;;;;;;;9.00;3.40;;;;;;;20.88;61.46;98971.11;80692;1297;3048157;-66
2023/06/14 06:47:42;;;;;;;10.20;3.80;;;;;;;20.76;61.69;98977.95;82029;1294;3018813;-67
2023/06/14 06:50:09;;;;;;;7.70;4.20;;;;;;;20.61;62.05;98973.58;82004;1295;3011132;-65
2023/06/14 06:52:37;;;;;;;11.10;3.90;;;;;;;20.28;63.03;98979.98;80727;1296;3026289;-71
2023/06/14 06:55:07;;;;;;;9.70;3.90;;;;;;;20.12;63.45;98977.23;81990;1295;3011254;-68
2023/06/14 06:57:36;;;;;;;6.30;3.30;;;;;;;20.14;63.60;98974.33;81491;1294;3011367;-68
2023/06/14 07:00:05;;;;;;;7.70;3.00;;;;;;;20.25;63.03;98976.19;82052;1294;3012562;-69
2023/06/14 07:02:34;;;;;;;7.80;3.70;;;;;;;20.40;62.07;98973.75;80734;1294;3052185;-67
2023/06/14 07:05:01;;;;;;;4.70;2.90;;;;;;;20.53;61.65;98973.83;81985;1295;3012749;-65
2023/06/14 07:07:27;;;;;;;5.70;3.00;;;;;;;20.54;61.58;98970.36;82010;1296;3011089;-67
2023/06/14 07:09:57;;;;;;;12.20;3.90;;;;;;;20.56;61.87;98974.88;80760;1294;3026807;-67
2023/06/14 07:15:53;;;;;;;9.70;3.80;;;;;;;20.36;62.77;98970.45;80023;1303;3012903;-63
2023/06/14 07:18:20;;;;;;;9.30;3.80;;;;;;;20.18;63.63;98969.80;79074;1305;3012983;-67
2023/06/14 07:20:51;;;;;;;10.50;3.70;;;;;;;20.15;63.88;98969.06;78491;1306;3013478;-64
2023/06/14 07:23:18;;;;;;;8.20;3.60;;;;;;;20.11;63.67;98973.04;78927;1306;3012828;-65
2023/06/14 07:25:47;;;;;;;8.70;3.80;;;;;;;20.21;62.58;98968.25;78664;1305;3013748;-66
2023/06/14 07:28:16;;;;;;;6.10;3.60;;;;;;;19.93;62.93;98966.95;77099;1305;3013748;-67
2023/06/14 07:30:46;;;;;;;11.70;3.90;;;;;;;19.84;63.54;98970.16;78640;1303;3011652;-65
2023/06/14 07:33:13;;;;;;;10.40;4.00;;;;;;;20.03;63.22;98969.36;79202;1301;3013065;-67
2023/06/14 07:35:40;;;;;;;8.10;4.40;;;;;;;20.19;62.60;98970.83;79250;1299;3013533;-65
2023/06/14 07:38:08;;;;;;;10.70;4.90;;;;;;;20.03;62.68;98973.96;78086;1302;3051664;-65
2023/06/14 07:40:35;;;;;;;11.20;4.40;;;;;;;19.95;63.28;98964.20;79291;1302;3013706;-65
2023/06/14 07:43:02;;;;;;;11.70;5.10;;;;;;;19.76;63.63;98969.11;79411;1302;3011416;-65
2023/06/14 07:45:31;;;;;;;12.60;5.40;;;;;;;19.59;64.17;98966.87;78198;1302;3050219;-70
2023/06/14 07:47:57;;;;;;;9.90;6.10;;;;;;;19.67;64.08;98965.46;79291;1297;3013147;-66
2023/06/14 07:50:24;;;;;;;11.60;5.10;;;;;;;19.86;63.79;98956.19;79479;1298;3011453;-65
2023/06/14 07:52:52;;;;;;;12.00;5.20;;;;;;;20.10;63.10;98959.20;78148;1298;3025895;-64
2023/06/14 07:55:19;;;;;;;12.30;5.00;;;;;;;20.37;62.43;98951.95;79276;1301;3012855;-69
2023/06/14 07:57:46;;;;;;;13.50;7.20;;;;;;;20.61;61.10;98957.94;79192;1299;3012224;-63
2023/06/14 08:00:15;;;;;;;18.60;7.30;;;;;;;20.69;61.29;98966.41;78024;1300;3026839;-65
2023/06/14 08:02:42;;;;;;;9.80;4.70;;;;;;;20.63;61.71;98958.86;79398;1298;3016131;-69
2023/06/14 08:05:10;;;;;;;6.60;4.50;;;;;;;20.60;62.11;98960.02;79411;1297;3011622;-66
2023/06/14 08:07:39;;;;;;;11.30;5.20;;;;;;;20.55;62.19;98960.16;78000;1299;3048995;-67
2023/06/14 08:10:07;;;;;;;5.10;4.00;;;;;;;20.40;62.28;98961.77;79404;1298;3012841;-65
2023/06/14 08:12:34;;;;;;;9.80;5.60;;;;;;;20.33;62.73;98952.08;79251;1298;3011635;-69
2023/06/14 08:15:03;;;;;;;14.20;5.50;;;;;;;20.75;61.97;98954.36;78111;1300;3051335;-66
2023/06/14 08:17:30;;;;;;;12.90;4.90;;;;;;;20.80;61.05;98954.20;79345;1298;3012657;-63
2023/06/14 08:19:57;;;;;;;16.20;7.30;;;;;;;20.76;61.41;98953.22;79351;1297;3011716;-63
2023/06/14 08:22:27;;;;;;;11.50;4.60;;;;;;;20.82;61.27;98961.77;77985;1300;3049905;-64
2023/06/14 08:24:54;;;;;;;9.60;4.70;;;;;;;20.65;61.66;98966.46;79273;1300;3013042;-63
2023/06/14 08:27:23;;;;;;;11.80;4.80;;;;;;;20.51;61.73;98965.33;78679;1300;3011918;-64
2023/06/14 08:29:50;;;;;;;8.90;3.70;;;;;;;20.33;61.98;98966.75;79208;1300;3013505;-64
2023/06/14 08:32:16;;;;;;;9.70;5.20;;;;;;;20.45;62.03;98968.00;79153;1298;3011724;-65
2023/06/14 08:34:45;;;;;;;8.80;4.70;;;;;;;20.40;62.14;98976.35;77982;1303;3028051;-66
2023/06/14 08:37:12;;;;;;;11.00;4.30;;;;;;;20.38;62.25;98974.08;79179;1298;3012965;-64
2023/06/14 08:39:39;;;;;;;6.60;3.90;;;;;;;20.63;61.73;98970.47;79198;1297;3011600;-63
2023/06/14 08:42:10;;;;;;;7.80;4.00;;;;;;;20.86;61.09;98969.61;78014;1303;3053255;-63
2023/06/14 08:44:37;;;;;;;14.50;5.10;;;;;;;20.78;61.23;98969.13;79238;1297;3013401;-64
2023/06/14 08:47:04;;;;;;;9.30;4.40;;;;;;;21.00;60.93;98966.95;79186;1297;3011667;-64
2023/06/14 08:49:33;;;;;;;12.40;4.00;;;;;;;21.16;60.61;98971.70;77954;1302;3049777;-70
2023/06/14 08:52:00;;;;;;;11.60;3.70;;;;;;;21.29;59.83;98970.44;79242;1300;3013521;-66
2023/06/14 08:54:29;;;;;;;8.70;4.20;;;;;;;21.18;60.21;98970.39;79251;1301;3011655;-64
2023/06/14 08:56:58;;;;;;;9.90;3.80;;;;;;;20.95;60.72;98970.11;78118;1302;3053035;-63
2023/06/14 08:59:26;;;;;;;9.50;4.50;;;;;;;20.79;61.40;98970.00;79112;1303;3014405;-66
2023/06/14 09:01:54;;;;;;;6.20;3.70;;;;;;;20.74;61.50;98971.54;79169;1297;3013014;-65
2023/06/14 09:04:22;;;;;;;7.30;3.90;;;;;;;20.75;61.58;98975.59;78065;1301;3049944;-68
2023/06/14 09:15:56;;;;;;;6.90;3.80;;;;;;;20.42;62.99;98977.34;79589;1313;3053180;-67
2023/06/14 09:18:52;;;;;;;10.70;4.10;;;;;;;20.59;62.57;98981.89;79771;1309;3068463;-68
2023/06/14 09:26:27;;;;;;;;;;;;;;;;;;;;;
2023/06/14 09:29:30;;;;;;;;;;;;;;;;;;;;;
2023/06/14 09:32:46;;;;;;;;;;;;;;;;;;;;;
2023/06/14 09:36:01;;;;;;;9.00;4.10;;;;;;;20.21;64.03;98990.16;80599;1297;3050504;-67
2023/06/14 09:38:42;;;;;;;14.60;4.60;;;;;;;20.34;63.76;98991.45;81904;1297;3011160;-66
2023/06/14 09:46:07;;;;;;;;;;;;;;;;;;;;;
2023/06/14 09:49:39;;;;;;;11.40;4.10;;;;;;;19.96;64.20;98989.08;80377;1301;3050772;-66
2023/06/14 10:01:08;;;;;;;10.90;3.80;;;;;;;20.51;62.84;98979.73;80495;1297;3053163;-65
2023/06/14 10:08:51;;;;;;;;;;;;;;;;;;;;;
2023/06/14 10:12:36;;;;;;;;;;;;;;;;;;;;;
2023/06/14 10:15:17;;;;;;;11.70;5.10;;;;;;;20.57;61.87;98989.81;80489;1297;3068635;-68
2023/06/14 10:18:25;;;;;;;14.30;5.20;;;;;;;20.48;62.64;98987.20;80686;1295;3051352;-66
2023/06/14 10:21:19;;;;;;;12.70;4.60;;;;;;;20.64;62.30;98980.63;80748;1295;3056938;-69
2023/06/14 10:23:53;;;;;;;10.20;3.80;;;;;;;20.93;61.67;98973.77;80744;1295;3048830;-66
2023/06/14 10:26:21;;;;;;;11.50;4.20;;;;;;;21.02;61.55;98970.62;82048;1295;3011195;-67
2023/06/14 10:29:01;;;;;;;7.20;4.00;;;;;;;21.27;60.66;98974.93;80782;1294;3049340;-68
2023/06/14 10:32:11;;;;;;;7.60;3.80;;;;;;;21.45;59.85;98970.52;80799;1295;3052247;-67
2023/06/14 10:35:15;;;;;;;7.60;4.20;;;;;;;21.36;59.54;98971.77;80450;1301;3052955;-67
2023/06/14 10:38:37;;;;;;;10.80;4.30;;;;;;;21.17;59.95;98976.07;80503;1300;3069377;-69
2023/06/14 10:41:34;;;;;;;7.20;4.30;;;;;;;20.85;60.88;98973.58;80395;1302;3049536;-68
2023/06/14 10:44:43;;;;;;;12.00;3.60;;;;;;;20.99;60.97;98966.98;80366;1307;3056870;-67
2023/06/14 10:47:21;;;;;;;10.30;4.00;;;;;;;21.52;59.45;98959.33;80749;1294;3050362;-68
2023/06/14 10:50:44;;;;;;;10.50;4.10;;;;;;;21.83;58.77;98956.45;80756;1295;3052666;-65
2023/06/14 10:54:25;;;;;;;7.70;4.50;;;;;;;22.16;57.96;98948.04;80754;1295;3049756;-66
2023/06/14 10:56:57;;;;;;;12.60;4.60;;;;;;;22.04;57.61;98945.08;80703;1297;3054444;-69
2023/06/14 10:59:27;;;;;;;6.90;4.10;;;;;;;22.05;58.05;98939.34;81934;1298;3011128;-66
2023/06/14 11:02:25;;;;;;;8.20;4.40;;;;;;;22.16;57.93;98945.36;80757;1295;3068065;-68
2023/06/14 11:05:06;;;;;;;12.80;5.10;;;;;;;22.25;57.43;98950.48;80667;1295;3050129;-67
2023/06/14 11:08:04;;;;;;;8.70;4.30;;;;;;;22.25;57.26;98947.41;81908;1298;3012551;-66
2023/06/14 11:10:42;;;;;;;14.90;4.80;;;;;;;22.34;57.04;98945.38;80685;1296;3052994;-66
2023/06/14 11:13:11;;;;;;;11.70;4.40;;;;;;;22.42;56.76;98955.11;80588;1297;3050207;-68
2023/06/14 11:15:42;;;;;;;8.10;4.40;;;;;;;22.50;56.44;98953.16;81968;1297;3012544;-69
2023/06/14 11:18:13;;;;;;;9.00;4.10;;;;;;;22.67;56.34;98957.70;80612;1297;3068062;-65
2023/06/14 11:20:52;;;;;;;10.80;4.80;;;;;;;22.87;55.79;98953.61;81928;1296;3011509;-64
2023/06/14 11:23:33;;;;;;;9.40;4.30;;;;;;;22.92;55.26;98956.66;80675;1297;3056620;-64
2023/06/14 11:26:06;;;;;;;19.30;5.00;;;;;;;22.93;55.13;98956.92;81929;1300;3018052;-69
2023/06/14 11:28:48;;;;;;;10.10;5.10;;;;;;;22.84;55.39;98953.00;80670;1297;3049859;-68
2023/06/14 11:31:26;;;;;;;11.50;4.80;;;;;;;22.91;55.49;98957.91;80687;1297;3053135;-68
2023/06/14 11:34:08;;;;;;;9.40;4.80;;;;;;;22.90;55.78;98954.93;81944;1296;3011503;-66
2023/06/14 11:36:37;;;;;;;9.30;4.80;;;;;;;23.03;55.15;98955.69;80682;1296;3070073;-68
2023/06/14 11:39:15;;;;;;;10.30;5.20;;;;;;;22.91;55.01;98957.73;81909;1297;3011428;-67
2023/06/14 11:54:30;;;;;;;;;;;;;;;;;;;;;
2023/06/14 11:58:11;;;;;;;12.40;4.80;;;;;;;23.74;53.63;98953.95;80716;1296;3053556;-66
2023/06/14 12:05:09;;;;;;;9.80;5.20;;;;;;;23.84;52.93;98947.91;80444;1296;3069272;-67
2023/06/14 12:09:16;;;;;;;12.70;4.70;;;;;;;23.92;52.67;98941.33;80403;1300;3051602;-67
2023/06/14 12:12:18;;;;;;;9.70;4.50;;;;;;;23.91;52.72;98931.58;80230;1302;3057184;-67
2023/06/14 12:14:56;;;;;;;11.10;4.20;;;;;;;23.96;52.83;98936.48;80354;1303;3049494;-68
2023/06/14 12:18:32;;;;;;;13.20;5.40;;;;;;;24.03;52.79;98935.19;80349;1302;3052699;-65
2023/06/14 12:25:53;;;;;;;9.70;4.50;;;;;;;24.21;52.01;98935.70;80138;1310;3054504;-68
2023/06/14 12:33:00;;;;;;;9.50;4.40;;;;;;;23.62;53.38;98933.13;79741;1302;3068911;-69
2023/06/14 12:36:29;;;;;;;7.60;3.70;;;;;;;23.68;53.48;98935.05;80103;1307;3051389;-64
2023/06/14 12:40:36;;;;;;;18.20;5.00;;;;;;;23.74;53.11;98938.05;79678;1311;3056388;-64
2023/06/14 12:48:09;;;;;;;;;;;;;;;;;;;;;
2023/06/14 12:51:07;;;;;;;13.50;4.90;;;;;;;23.23;54.18;98926.32;79800;1306;3050079;-68
2023/06/14 13:02:34;;;;;;;8.10;4.00;;;;;;;24.03;52.21;98908.65;79825;1310;3067937;-66
2023/06/14 13:09:54;;;;;;;8.30;3.60;;;;;;;24.38;51.67;98914.20;80345;1302;3057143;-70
2023/06/14 13:12:59;;;;;;;13.40;4.00;;;;;;;24.72;50.59;98907.94;80394;1302;3049359;-69
2023/06/14 13:19:23;;;;;;;15.90;4.30;;;;;;;25.37;49.23;98902.59;80649;1294;3049219;-68